createdAt,value
2018-09-14T00:02:15.350Z,8.30
2018-09-14T00:04:43.945Z,8.28
2018-09-14T00:07:12.530Z,8.26
2018-09-14T00:09:41.172Z,8.26
2018-09-14T00:12:09.734Z,8.22
2018-09-14T00:14:38.324Z,8.23
2018-09-14T00:17:07.474Z,8.21
2018-09-14T00:19:36.160Z,8.18
2018-09-14T00:22:04.753Z,8.11
2018-09-14T00:24:33.350Z,7.99
2018-09-14T00:27:01.943Z,7.88
2018-09-14T00:29:30.519Z,7.80
2018-09-14T00:31:59.093Z,7.73
2018-09-14T00:34:27.680Z,7.72
2018-09-14T00:36:56.282Z,7.67
2018-09-14T00:39:24.859Z,7.61
2018-09-14T00:41:53.442Z,7.57
2018-09-14T00:44:22.017Z,7.55
2018-09-14T00:46:50.581Z,7.58
2018-09-14T00:49:19.140Z,7.61
2018-09-14T00:51:47.708Z,7.60
2018-09-14T00:54:16.281Z,7.58
2018-09-14T00:56:44.869Z,7.49
2018-09-14T00:59:13.429Z,7.49
2018-09-14T01:01:42.019Z,7.49
2018-09-14T01:04:10.597Z,7.48
2018-09-14T01:06:39.178Z,7.43
2018-09-14T01:09:13.148Z,7.36
2018-09-14T01:11:41.861Z,7.29
2018-09-14T01:14:10.425Z,7.27
2018-09-14T01:16:39.015Z,7.23
2018-09-14T01:19:07.573Z,7.20
2018-09-14T01:21:36.149Z,7.18
2018-09-14T01:24:04.748Z,7.14
2018-09-14T01:26:33.421Z,7.05
2018-09-14T01:29:02.033Z,6.97
2018-09-14T01:31:30.623Z,6.90
2018-09-14T01:33:59.739Z,6.84
2018-09-14T01:36:28.341Z,6.80
2018-09-14T01:38:56.916Z,6.78
2018-09-14T01:41:25.497Z,6.76
2018-09-14T01:43:54.080Z,6.73
2018-09-14T01:46:22.670Z,6.74
2018-09-14T01:48:51.297Z,6.74
2018-09-14T01:51:19.895Z,6.69
2018-09-14T01:53:48.733Z,6.65
2018-09-14T01:56:17.342Z,6.66
2018-09-14T01:58:45.910Z,6.64
2018-09-14T02:01:14.479Z,6.58
2018-09-14T02:03:44.027Z,6.45
2018-09-14T02:06:12.610Z,6.36
2018-09-14T02:08:41.217Z,6.31
2018-09-14T02:11:09.792Z,6.24
2018-09-14T02:13:38.379Z,6.18
2018-09-14T02:16:06.941Z,6.16
2018-09-14T02:18:35.538Z,6.12
2018-09-14T02:21:04.117Z,6.08
2018-09-14T02:23:32.705Z,6.11
2018-09-14T02:26:01.613Z,6.19
2018-09-14T02:28:30.271Z,6.18
2018-09-14T02:30:58.842Z,6.18
2018-09-14T02:33:27.436Z,6.08
2018-09-14T02:35:56.008Z,6.03
2018-09-14T02:38:24.592Z,5.96
2018-09-14T02:40:53.156Z,5.95
2018-09-14T02:43:21.751Z,5.94
2018-09-14T02:45:50.325Z,5.92
2018-09-14T02:48:18.986Z,5.91
2018-09-14T02:50:47.562Z,5.92
2018-09-14T02:53:16.507Z,5.93
2018-09-14T02:55:45.083Z,5.94
2018-09-14T02:58:13.676Z,5.95
2018-09-14T03:00:42.246Z,5.93
2018-09-14T03:03:10.835Z,5.88
2018-09-14T03:05:39.409Z,5.84
2018-09-14T03:08:08.273Z,5.81
2018-09-14T03:10:36.862Z,5.69
2018-09-14T03:13:05.487Z,5.59
2018-09-14T03:15:34.073Z,5.50
2018-09-14T03:18:02.656Z,5.58
2018-09-14T03:20:31.229Z,5.67
2018-09-14T03:22:59.820Z,5.67
2018-09-14T03:25:28.392Z,5.59
2018-09-14T03:27:56.971Z,5.47
2018-09-14T03:30:25.557Z,5.34
2018-09-14T03:32:54.173Z,5.31
2018-09-14T03:35:22.727Z,5.30
2018-09-14T03:37:51.314Z,5.29
2018-09-14T03:40:19.914Z,5.30
2018-09-14T03:42:48.490Z,5.35
2018-09-14T03:45:17.177Z,5.36
2018-09-14T03:47:45.742Z,5.33
2018-09-14T03:50:14.342Z,5.32
2018-09-14T03:52:42.909Z,5.30
2018-09-14T03:55:11.549Z,5.22
2018-09-14T03:57:40.121Z,5.23
2018-09-14T04:00:08.725Z,5.19
2018-09-14T04:02:37.293Z,5.15
2018-09-14T04:05:05.913Z,5.15
2018-09-14T04:07:34.536Z,5.10
2018-09-14T04:10:03.149Z,5.16
2018-09-14T04:12:31.729Z,5.16
2018-09-14T04:15:00.308Z,5.14
2018-09-14T04:17:28.875Z,5.13
2018-09-14T04:19:57.476Z,5.11
2018-09-14T04:22:26.043Z,5.09
2018-09-14T04:24:54.643Z,5.05
2018-09-14T04:27:23.196Z,5.01
2018-09-14T04:29:51.797Z,4.96
2018-09-14T04:32:20.357Z,4.92
2018-09-14T04:34:48.937Z,4.93
2018-09-14T04:37:17.516Z,4.90
2018-09-14T04:39:46.107Z,4.91
2018-09-14T04:42:14.678Z,4.89
2018-09-14T04:44:43.261Z,4.87
2018-09-14T04:47:11.820Z,4.84
2018-09-14T04:49:40.410Z,4.84
2018-09-14T04:52:09.003Z,4.83
2018-09-14T04:54:37.595Z,4.83
2018-09-14T04:57:06.323Z,4.87
2018-09-14T04:59:34.901Z,4.89
2018-09-14T05:02:03.487Z,4.95
2018-09-14T05:04:32.062Z,5.03
2018-09-14T05:07:00.675Z,5.17
2018-09-14T05:09:29.257Z,5.22
2018-09-14T05:11:57.855Z,5.26
2018-09-14T05:14:26.420Z,5.20
2018-09-14T05:16:55.062Z,5.17
2018-09-14T05:19:23.623Z,5.19
2018-09-14T05:21:52.346Z,5.25
2018-09-14T05:24:20.950Z,5.32
2018-09-14T05:26:49.537Z,5.43
2018-09-14T05:29:18.136Z,5.51
2018-09-14T05:31:46.744Z,5.50
2018-09-14T05:34:15.319Z,5.63
2018-09-14T05:36:43.903Z,5.65
2018-09-14T05:39:12.481Z,5.79
2018-09-14T05:41:41.097Z,5.92
2018-09-14T05:44:09.653Z,6.06
2018-09-14T05:46:38.243Z,6.16
2018-09-14T05:49:06.813Z,6.31
2018-09-14T05:51:35.409Z,6.47
2018-09-14T05:54:03.986Z,6.81
2018-09-14T05:56:32.572Z,7.22
2018-09-14T05:59:01.140Z,7.49
2018-09-14T06:01:29.779Z,7.64
2018-09-14T06:03:58.356Z,7.76
2018-09-14T06:06:27.001Z,7.84
2018-09-14T06:08:55.552Z,7.90
2018-09-14T06:11:24.145Z,8.01
2018-09-14T06:13:52.800Z,8.12
2018-09-14T06:16:21.387Z,8.14
2018-09-14T06:18:50.059Z,8.16
2018-09-14T06:21:18.739Z,8.24
2018-09-14T06:23:47.296Z,8.34
2018-09-14T06:26:15.895Z,8.46
2018-09-14T06:28:44.481Z,8.60
2018-09-14T06:31:13.069Z,8.75
2018-09-14T06:33:41.655Z,8.91
2018-09-14T06:36:10.255Z,9.07
2018-09-14T06:38:38.826Z,9.27
2018-09-14T06:41:07.440Z,9.48
2018-09-14T06:43:36.013Z,9.66
2018-09-14T06:46:04.620Z,9.86
2018-09-14T06:48:33.188Z,10.03
2018-09-14T06:51:01.782Z,10.24
2018-09-14T06:53:30.350Z,10.46
2018-09-14T06:55:58.965Z,10.67
2018-09-14T06:58:27.534Z,10.86
2018-09-14T07:00:56.147Z,11.02
2018-09-14T07:03:24.728Z,11.27
2018-09-14T07:05:53.308Z,11.53
2018-09-14T07:08:21.902Z,11.72
2018-09-14T07:10:50.493Z,11.85
2018-09-14T07:13:19.118Z,12.01
2018-09-14T07:15:47.672Z,12.20
2018-09-14T07:18:16.272Z,12.39
2018-09-14T07:20:44.845Z,12.49
2018-09-14T07:23:13.425Z,12.64
2018-09-14T07:25:42.011Z,12.81
2018-09-14T07:28:10.601Z,12.95
2018-09-14T07:30:39.212Z,13.05
2018-09-14T07:33:07.801Z,13.18
2018-09-14T07:35:36.369Z,13.32
2018-09-14T07:38:04.965Z,13.37
2018-09-14T07:40:33.569Z,13.49
2018-09-14T07:43:02.187Z,13.63
2018-09-14T07:45:30.760Z,13.83
2018-09-14T07:47:59.345Z,13.87
2018-09-14T07:50:27.925Z,13.94
2018-09-14T07:52:56.494Z,13.99
2018-09-14T07:55:25.146Z,14.05
2018-09-14T07:57:53.709Z,14.11
2018-09-14T08:00:22.266Z,14.17
2018-09-14T08:02:50.853Z,14.37
2018-09-14T08:05:19.422Z,14.57
2018-09-14T08:07:48.039Z,14.69
2018-09-14T08:10:16.654Z,14.84
2018-09-14T08:12:45.261Z,15.04
2018-09-14T08:15:13.843Z,15.20
2018-09-14T08:17:42.420Z,15.27
2018-09-14T08:20:11.076Z,15.29
2018-09-14T08:22:39.631Z,15.30
2018-09-14T08:25:08.200Z,15.44
2018-09-14T08:27:36.854Z,15.65
2018-09-14T08:30:05.644Z,15.69
2018-09-14T08:32:34.256Z,15.70
2018-09-14T08:35:02.837Z,15.77
2018-09-14T08:37:31.445Z,15.87
2018-09-14T08:40:00.022Z,15.95
2018-09-14T08:42:28.581Z,15.92
2018-09-14T08:44:57.190Z,15.96
2018-09-14T08:47:26.166Z,16.03
2018-09-14T08:49:54.773Z,16.11
2018-09-14T08:52:23.352Z,16.19
2018-09-14T08:54:51.956Z,16.29
2018-09-14T08:57:20.545Z,16.43
2018-09-14T08:59:49.142Z,16.57
2018-09-14T09:02:17.720Z,16.77
2018-09-14T09:04:46.331Z,16.85
2018-09-14T09:07:14.973Z,17.03
2018-09-14T09:09:43.555Z,17.20
2018-09-14T09:12:12.141Z,17.26
2018-09-14T09:14:40.753Z,17.25
2018-09-14T09:17:09.330Z,17.37
2018-09-14T09:19:37.928Z,17.34
2018-09-14T09:22:06.613Z,17.40
2018-09-14T09:24:35.223Z,17.50
2018-09-14T09:27:03.785Z,17.65
2018-09-14T09:29:32.465Z,17.68
2018-09-14T09:32:00.980Z,17.78
2018-09-14T09:34:29.854Z,17.97
2018-09-14T09:36:58.421Z,18.12
2018-09-14T09:39:27.024Z,18.23
2018-09-14T09:41:55.618Z,18.32
2018-09-14T09:44:24.214Z,18.24
2018-09-14T09:46:52.777Z,18.33
2018-09-14T09:49:21.394Z,18.26
2018-09-14T09:51:49.960Z,18.29
2018-09-14T09:54:18.544Z,18.46
2018-09-14T09:56:47.200Z,18.49
2018-09-14T09:59:15.773Z,18.64
2018-09-14T10:01:49.795Z,18.76
2018-09-14T10:04:23.597Z,18.87
2018-09-14T10:06:52.166Z,18.89
2018-09-14T10:09:20.781Z,18.96
2018-09-14T10:11:49.340Z,18.97
2018-09-14T10:14:17.943Z,18.84
2018-09-14T10:16:46.527Z,18.56
2018-09-14T10:19:15.097Z,18.57
2018-09-14T10:21:43.691Z,18.71
2018-09-14T10:24:12.277Z,18.75
2018-09-14T10:26:40.891Z,18.27
2018-09-14T10:29:09.488Z,18.00
2018-09-14T10:31:38.098Z,18.21
2018-09-14T10:34:07.049Z,18.78
2018-09-14T10:36:35.657Z,19.38
2018-09-14T10:39:06.111Z,19.81
2018-09-14T10:41:34.715Z,20.11
2018-09-14T10:44:03.282Z,19.59
2018-09-14T10:46:31.882Z,19.16
2018-09-14T10:49:00.460Z,18.71
2018-09-14T10:51:29.083Z,18.49
2018-09-14T10:53:57.675Z,18.41
2018-09-14T10:56:26.268Z,18.30
2018-09-14T10:58:54.889Z,18.29
2018-09-14T11:01:23.494Z,18.37
2018-09-14T11:03:52.069Z,18.29
2018-09-14T11:06:20.667Z,18.03
2018-09-14T11:08:49.238Z,17.72
2018-09-14T11:11:17.841Z,17.60
2018-09-14T11:13:46.417Z,17.50
2018-09-14T11:16:15.026Z,17.44
2018-09-14T11:18:43.643Z,17.42
2018-09-14T11:21:12.238Z,17.84
2018-09-14T11:23:40.818Z,18.29
2018-09-14T11:26:09.432Z,18.66
2018-09-14T11:28:38.064Z,19.13
2018-09-14T11:31:06.686Z,19.49
2018-09-14T11:33:35.273Z,20.02
2018-09-14T11:36:03.887Z,20.41
2018-09-14T11:38:32.526Z,20.47
2018-09-14T11:41:01.110Z,20.55
2018-09-14T11:43:29.684Z,20.45
2018-09-14T11:45:58.329Z,20.26
2018-09-14T11:48:26.890Z,20.27
2018-09-14T11:50:55.487Z,20.12
2018-09-14T11:53:24.058Z,19.76
2018-09-14T11:55:52.643Z,19.50
2018-09-14T11:58:21.402Z,19.34
2018-09-14T12:00:50.462Z,19.28
2018-09-14T12:03:19.024Z,19.42
2018-09-14T12:05:47.627Z,19.98
2018-09-14T12:08:16.213Z,20.28
2018-09-14T12:10:44.795Z,20.39
2018-09-14T12:13:13.625Z,19.98
2018-09-14T12:15:42.233Z,19.77
2018-09-14T12:18:10.804Z,19.65
2018-09-14T12:20:39.405Z,19.39
2018-09-14T12:23:07.994Z,19.47
2018-09-14T12:25:38.196Z,19.61
2018-09-14T12:28:08.271Z,19.69
2018-09-14T12:30:36.835Z,19.73
2018-09-14T12:33:05.420Z,19.72
2018-09-14T12:35:34.012Z,19.65
2018-09-14T12:38:02.610Z,19.67
2018-09-14T12:40:31.172Z,19.64
2018-09-14T12:42:59.753Z,19.59
2018-09-14T12:45:28.354Z,19.58
2018-09-14T12:47:56.947Z,19.53
2018-09-14T12:50:26.354Z,19.55
2018-09-14T12:52:54.927Z,19.55
2018-09-14T12:55:23.485Z,19.49
2018-09-14T12:57:52.141Z,19.42
2018-09-14T13:00:20.709Z,19.37
2018-09-14T13:02:49.284Z,19.38
2018-09-14T13:05:17.849Z,19.39
2018-09-14T13:07:46.430Z,19.41
2018-09-14T13:10:14.994Z,19.41
2018-09-14T13:12:43.582Z,19.37
2018-09-14T13:15:12.218Z,19.37
2018-09-14T13:17:40.804Z,19.40
2018-09-14T13:20:09.369Z,19.60
2018-09-14T13:22:37.972Z,19.71
2018-09-14T13:25:06.595Z,19.96
2018-09-14T13:27:35.180Z,19.93
2018-09-14T13:30:03.806Z,19.72
2018-09-14T13:32:32.390Z,19.66
2018-09-14T13:35:00.948Z,19.93
2018-09-14T13:37:29.534Z,20.17
2018-09-14T13:39:58.090Z,20.40
2018-09-14T13:42:26.888Z,20.76
2018-09-14T13:44:55.359Z,20.82
2018-09-14T13:47:23.961Z,20.91
2018-09-14T13:49:52.536Z,20.91
2018-09-14T13:52:21.121Z,20.44
2018-09-14T13:54:49.683Z,19.98
2018-09-14T13:57:18.270Z,19.57
2018-09-14T13:59:46.870Z,19.37
2018-09-14T14:02:15.448Z,19.28
2018-09-14T14:04:44.003Z,19.31
2018-09-14T14:07:12.599Z,19.49
2018-09-14T14:09:41.224Z,20.03
2018-09-14T14:12:09.782Z,20.58
2018-09-14T14:14:38.336Z,20.89
2018-09-14T14:17:07.010Z,20.97
2018-09-14T14:19:35.565Z,21.12
2018-09-14T14:22:04.190Z,21.05
2018-09-14T14:24:32.769Z,20.60
2018-09-14T14:27:01.632Z,19.98
2018-09-14T14:29:30.229Z,19.62
2018-09-14T14:31:58.836Z,19.55
2018-09-14T14:34:27.399Z,19.46
2018-09-14T14:36:55.969Z,19.41
2018-09-14T14:39:24.577Z,19.40
2018-09-14T14:41:53.158Z,19.34
2018-09-14T14:44:21.785Z,19.31
2018-09-14T14:46:50.353Z,19.31
2018-09-14T14:49:19.107Z,19.46
2018-09-14T14:51:47.618Z,19.80
2018-09-14T14:54:16.220Z,20.02
2018-09-14T14:56:44.793Z,20.08
2018-09-14T14:59:13.390Z,20.16
2018-09-14T15:01:41.978Z,20.02
2018-09-14T15:04:10.590Z,19.71
2018-09-14T15:06:39.178Z,19.39
2018-09-14T15:09:09.589Z,19.15
2018-09-14T15:11:38.155Z,19.01
2018-09-14T15:14:06.834Z,18.94
2018-09-14T15:16:35.480Z,18.94
2018-09-14T15:19:04.089Z,18.94
2018-09-14T15:21:32.689Z,18.98
2018-09-14T15:24:01.398Z,19.25
2018-09-14T15:26:29.930Z,19.56
2018-09-14T15:28:58.524Z,19.88
2018-09-14T15:31:27.097Z,20.17
2018-09-14T15:33:55.689Z,20.36
2018-09-14T15:36:24.266Z,20.54
2018-09-14T15:38:52.861Z,20.62
2018-09-14T15:41:21.410Z,20.67
2018-09-14T15:43:49.978Z,20.28
2018-09-14T15:46:18.561Z,19.93
2018-09-14T15:48:47.132Z,19.63
2018-09-14T15:51:15.734Z,19.48
2018-09-14T15:53:44.326Z,19.41
2018-09-14T15:56:12.896Z,19.38
2018-09-14T15:58:41.476Z,19.38
2018-09-14T16:01:10.088Z,19.33
2018-09-14T16:03:38.676Z,19.35
2018-09-14T16:06:07.259Z,19.33
2018-09-14T16:08:35.847Z,19.23
2018-09-14T16:11:04.438Z,19.17
2018-09-14T16:13:33.082Z,19.13
2018-09-14T16:16:01.637Z,19.06
2018-09-14T16:18:30.218Z,18.90
2018-09-14T16:20:58.781Z,18.66
2018-09-14T16:23:27.379Z,18.38
2018-09-14T16:25:55.948Z,18.16
2018-09-14T16:28:24.510Z,17.99
2018-09-14T16:30:53.124Z,17.83
2018-09-14T16:33:21.701Z,17.67
2018-09-14T16:35:50.373Z,17.52
2018-09-14T16:38:18.951Z,17.41
2018-09-14T16:40:47.545Z,17.27
2018-09-14T16:43:16.126Z,17.14
2018-09-14T16:45:44.725Z,17.01
2018-09-14T16:48:13.326Z,16.91
2018-09-14T16:50:41.935Z,16.80
2018-09-14T16:53:10.522Z,16.69
2018-09-14T16:55:39.125Z,16.59
2018-09-14T16:58:07.748Z,16.49
2018-09-14T17:00:36.362Z,16.36
2018-09-14T17:03:04.940Z,16.24
2018-09-14T17:05:33.530Z,16.14
2018-09-14T17:08:02.118Z,16.03
2018-09-14T17:10:30.710Z,15.86
2018-09-14T17:12:59.290Z,15.70
2018-09-14T17:15:27.886Z,15.54
2018-09-14T17:17:56.467Z,15.38
2018-09-14T17:20:25.086Z,15.23
2018-09-14T17:22:53.656Z,15.07
2018-09-14T17:25:22.265Z,14.89
2018-09-14T17:27:50.844Z,14.68
2018-09-14T17:30:19.457Z,14.45
2018-09-14T17:32:48.009Z,14.24
2018-09-14T17:35:16.619Z,14.07
2018-09-14T17:37:45.190Z,13.93
2018-09-14T17:40:13.774Z,13.82
2018-09-14T17:42:42.342Z,13.69
2018-09-14T17:45:10.942Z,13.54
2018-09-14T17:47:39.512Z,13.40
2018-09-14T17:50:08.168Z,13.26
2018-09-14T17:52:36.712Z,13.14
2018-09-14T17:55:05.301Z,13.06
2018-09-14T17:57:34.003Z,12.97
2018-09-14T18:00:02.578Z,12.75
2018-09-14T18:02:31.128Z,12.58
2018-09-14T18:04:59.702Z,12.50
2018-09-14T18:07:28.269Z,12.48
2018-09-14T18:09:56.853Z,12.51
2018-09-14T18:12:25.408Z,12.60
2018-09-14T18:14:53.980Z,12.61
2018-09-14T18:17:22.536Z,12.61
2018-09-14T18:19:51.139Z,12.58
2018-09-14T18:22:19.702Z,12.64
2018-09-14T18:24:48.274Z,12.70
2018-09-14T18:27:16.853Z,12.71
2018-09-14T18:29:45.468Z,12.64
2018-09-14T18:32:14.025Z,12.60
2018-09-14T18:34:42.612Z,12.55
2018-09-14T18:37:11.174Z,12.55
2018-09-14T18:39:39.737Z,12.48
2018-09-14T18:42:08.333Z,12.48
2018-09-14T18:44:36.901Z,12.41
2018-09-14T18:47:05.636Z,12.40
2018-09-14T18:49:34.236Z,12.40
2018-09-14T18:52:02.840Z,12.42
2018-09-14T18:54:31.409Z,12.42
2018-09-14T18:56:59.998Z,12.45
2018-09-14T18:59:28.557Z,12.48
2018-09-14T19:01:57.158Z,12.52
2018-09-14T19:04:25.722Z,12.59
2018-09-14T19:06:54.317Z,12.60
2018-09-14T19:09:22.898Z,12.59
2018-09-14T19:11:51.495Z,12.55
2018-09-14T19:14:20.086Z,12.52
2018-09-14T19:16:48.687Z,12.46
2018-09-14T19:19:17.281Z,12.42
2018-09-14T19:21:45.897Z,12.40
2018-09-14T19:24:14.463Z,12.27
2018-09-14T19:26:43.057Z,12.17
2018-09-14T19:29:11.628Z,12.13
2018-09-14T19:31:40.245Z,12.11
2018-09-14T19:34:08.837Z,12.03
2018-09-14T19:36:37.449Z,12.02
2018-09-14T19:39:09.032Z,12.03
2018-09-14T19:41:37.609Z,12.05
2018-09-14T19:44:06.156Z,12.09
2018-09-14T19:46:34.730Z,12.10
2018-09-14T19:49:03.285Z,12.08
2018-09-14T19:51:31.863Z,12.05
2018-09-14T19:54:00.422Z,12.03
2018-09-14T19:56:29.028Z,12.03
2018-09-14T19:58:57.594Z,11.96
2018-09-14T20:01:26.165Z,11.88
2018-09-14T20:03:54.718Z,11.84
2018-09-14T20:06:23.597Z,11.82
2018-09-14T20:08:52.488Z,11.78
2018-09-14T20:11:21.148Z,11.69
2018-09-14T20:13:49.716Z,11.59
2018-09-14T20:16:18.295Z,11.53
2018-09-14T20:18:46.886Z,11.46
2018-09-14T20:21:15.472Z,11.45
2018-09-14T20:23:44.029Z,11.43
2018-09-14T20:26:12.601Z,11.42
2018-09-14T20:28:41.195Z,11.40
2018-09-14T20:31:09.796Z,11.39
2018-09-14T20:33:38.378Z,11.40
2018-09-14T20:36:07.371Z,11.41
2018-09-14T20:38:35.951Z,11.41
2018-09-14T20:41:04.537Z,11.38
2018-09-14T20:43:33.144Z,11.29
2018-09-14T20:46:01.747Z,11.23
2018-09-14T20:48:30.322Z,11.23
2018-09-14T20:50:58.959Z,11.25
2018-09-14T20:53:27.538Z,11.26
2018-09-14T20:55:56.165Z,11.23
2018-09-14T20:58:24.758Z,11.18
2018-09-14T21:00:53.366Z,11.15
2018-09-14T21:03:21.965Z,11.13
2018-09-14T21:05:50.553Z,11.13
2018-09-14T21:08:19.381Z,11.10
2018-09-14T21:10:47.973Z,11.09
2018-09-14T21:13:16.588Z,11.07
2018-09-14T21:15:45.486Z,11.00
2018-09-14T21:18:14.152Z,10.95
2018-09-14T21:20:42.726Z,10.95
2018-09-14T21:23:11.329Z,10.95
2018-09-14T21:25:39.901Z,10.98
2018-09-14T21:28:08.508Z,10.97
2018-09-14T21:30:37.109Z,10.93
2018-09-14T21:33:05.924Z,10.83
2018-09-14T21:35:34.517Z,10.75
2018-09-14T21:38:03.107Z,10.68
2018-09-14T21:40:31.676Z,10.61
2018-09-14T21:43:00.304Z,10.56
2018-09-14T21:45:28.877Z,10.52
2018-09-14T21:47:57.465Z,10.50
2018-09-14T21:50:26.061Z,10.51
2018-09-14T21:52:54.650Z,10.50
2018-09-14T21:55:23.274Z,10.51
2018-09-14T21:57:51.901Z,10.51
2018-09-14T22:00:25.869Z,10.53
2018-09-14T22:02:54.440Z,10.56
2018-09-14T22:05:23.040Z,10.59
2018-09-14T22:07:51.614Z,10.58
2018-09-14T22:10:20.182Z,10.60
2018-09-14T22:12:48.758Z,10.58
2018-09-14T22:15:17.320Z,10.43
2018-09-14T22:17:45.906Z,10.32
2018-09-14T22:20:14.474Z,10.23
2018-09-14T22:22:43.068Z,10.17
2018-09-14T22:25:11.653Z,10.19
2018-09-14T22:27:40.280Z,10.26
2018-09-14T22:30:08.919Z,10.33
2018-09-14T22:32:37.507Z,10.41
2018-09-14T22:35:06.098Z,10.42
2018-09-14T22:37:34.782Z,10.41
2018-09-14T22:40:03.383Z,10.34
2018-09-14T22:42:31.959Z,10.28
2018-09-14T22:45:00.549Z,10.26
2018-09-14T22:47:29.132Z,10.22
2018-09-14T22:49:57.719Z,10.20
2018-09-14T22:52:26.297Z,10.17
2018-09-14T22:54:54.882Z,10.15
2018-09-14T22:57:23.437Z,10.10
2018-09-14T22:59:52.032Z,10.07
2018-09-14T23:02:20.589Z,10.05
2018-09-14T23:04:49.160Z,10.09
2018-09-14T23:07:17.713Z,10.11
2018-09-14T23:09:46.292Z,10.16
2018-09-14T23:12:14.861Z,10.23
2018-09-14T23:14:43.458Z,10.27
2018-09-14T23:17:12.030Z,10.28
2018-09-14T23:19:40.615Z,10.32
2018-09-14T23:22:09.176Z,10.40
2018-09-14T23:24:37.756Z,10.46
2018-09-14T23:27:06.349Z,10.50
2018-09-14T23:29:34.998Z,10.46
2018-09-14T23:32:03.580Z,10.43
2018-09-14T23:34:32.180Z,10.47
2018-09-14T23:37:00.750Z,10.51
2018-09-14T23:39:29.354Z,10.59
2018-09-14T23:41:57.929Z,10.63
2018-09-14T23:44:26.520Z,10.66
2018-09-14T23:46:55.100Z,10.66
2018-09-14T23:49:23.698Z,10.61
2018-09-14T23:51:52.381Z,10.54
2018-09-14T23:54:20.969Z,10.49
2018-09-14T23:56:49.548Z,10.44
2018-09-14T23:59:18.149Z,10.30
